sensor_id;sensor_type;location;lat;lon;timestamp;temperature;humidity
8939;DHT22;4504;48.810;9.172;2023-05-10T00:00:05;14.80;99.90
8939;DHT22;4504;48.810;9.172;2023-05-10T00:02:38;14.50;99.90
8939;DHT22;4504;48.810;9.172;2023-05-10T00:05:06;14.40;99.90
8939;DHT22;4504;48.810;9.172;2023-05-10T00:07:33;14.40;99.90
8939;DHT22;4504;48.810;9.172;2023-05-10T00:10:02;14.40;99.90
8939;DHT22;4504;48.810;9.172;2023-05-10T00:12:29;14.30;99.90
8939;DHT22;4504;48.810;9.172;2023-05-10T00:14:56;14.30;99.90
8939;DHT22;4504;48.810;9.172;2023-05-10T00:17:23;14.20;99.90
8939;DHT22;4504;48.810;9.172;2023-05-10T00:19:50;14.20;99.90
8939;DHT22;4504;48.810;9.172;2023-05-10T00:22:17;14.10;99.90
8939;DHT22;4504;48.810;9.172;2023-05-10T00:24:43;14.10;99.90
8939;DHT22;4504;48.810;9.172;2023-05-10T00:27:12;14.10;99.90
8939;DHT22;4504;48.810;9.172;2023-05-10T00:29:39;13.90;99.90
8939;DHT22;4504;48.810;9.172;2023-05-10T00:32:06;13.80;99.90
8939;DHT22;4504;48.810;9.172;2023-05-10T00:34:33;13.80;99.90
8939;DHT22;4504;48.810;9.172;2023-05-10T00:37:00;13.80;99.90
8939;DHT22;4504;48.810;9.172;2023-05-10T00:39:27;13.80;99.90
8939;DHT22;4504;48.810;9.172;2023-05-10T00:41:54;13.90;99.90
8939;DHT22;4504;48.810;9.172;2023-05-10T00:44:23;13.70;99.90
8939;DHT22;4504;48.810;9.172;2023-05-10T00:46:50;13.70;99.90
8939;DHT22;4504;48.810;9.172;2023-05-10T00:49:17;13.70;99.90
8939;DHT22;4504;48.810;9.172;2023-05-10T00:51:45;13.70;99.90
8939;DHT22;4504;48.810;9.172;2023-05-10T00:54:14;13.70;99.90
8939;DHT22;4504;48.810;9.172;2023-05-10T00:56:41;13.70;99.90
8939;DHT22;4504;48.810;9.172;2023-05-10T00:59:09;13.70;99.90
8939;DHT22;4504;48.810;9.172;2023-05-10T01:01:37;13.70;99.90
8939;DHT22;4504;48.810;9.172;2023-05-10T01:04:04;13.70;99.90
8939;DHT22;4504;48.810;9.172;2023-05-10T01:06:31;13.70;99.90
8939;DHT22;4504;48.810;9.172;2023-05-10T01:08:58;13.70;99.90
8939;DHT22;4504;48.810;9.172;2023-05-10T01:11:25;13.50;99.90
8939;DHT22;4504;48.810;9.172;2023-05-10T01:13:56;13.50;99.90
8939;DHT22;4504;48.810;9.172;2023-05-10T01:16:23;13.50;99.90
8939;DHT22;4504;48.810;9.172;2023-05-10T01:18:53;13.50;99.90
8939;DHT22;4504;48.810;9.172;2023-05-10T01:21:27;13.40;99.90
8939;DHT22;4504;48.810;9.172;2023-05-10T01:24:26;13.40;99.90
8939;DHT22;4504;48.810;9.172;2023-05-10T01:27:31;13.30;99.90
8939;DHT22;4504;48.810;9.172;2023-05-10T01:30:15;13.30;99.90
8939;DHT22;4504;48.810;9.172;2023-05-10T01:32:53;13.30;99.90
8939;DHT22;4504;48.810;9.172;2023-05-10T01:35:29;13.30;99.90
8939;DHT22;4504;48.810;9.172;2023-05-10T01:38:06;13.30;99.90
8939;DHT22;4504;48.810;9.172;2023-05-10T01:40:37;13.40;99.90
8939;DHT22;4504;48.810;9.172;2023-05-10T01:43:10;13.40;99.90
8939;DHT22;4504;48.810;9.172;2023-05-10T01:45:45;13.50;99.90
8939;DHT22;4504;48.810;9.172;2023-05-10T01:48:16;13.40;99.90
8939;DHT22;4504;48.810;9.172;2023-05-10T01:50:46;13.50;99.90
8939;DHT22;4504;48.810;9.172;2023-05-10T01:53:18;13.60;99.90
8939;DHT22;4504;48.810;9.172;2023-05-10T01:55:47;13.50;99.90
8939;DHT22;4504;48.810;9.172;2023-05-10T01:58:19;13.50;99.90
8939;DHT22;4504;48.810;9.172;2023-05-10T02:00:48;13.50;99.90
8939;DHT22;4504;48.810;9.172;2023-05-10T02:03:19;13.60;99.90
8939;DHT22;4504;48.810;9.172;2023-05-10T02:05:48;13.60;99.90
8939;DHT22;4504;48.810;9.172;2023-05-10T02:08:17;13.70;99.90
8939;DHT22;4504;48.810;9.172;2023-05-10T02:10:45;13.60;99.90
8939;DHT22;4504;48.810;9.172;2023-05-10T02:13:14;13.60;99.90
8939;DHT22;4504;48.810;9.172;2023-05-10T02:15:43;13.60;99.90
8939;DHT22;4504;48.810;9.172;2023-05-10T02:18:11;13.60;99.90
8939;DHT22;4504;48.810;9.172;2023-05-10T02:20:41;13.60;99.90
8939;DHT22;4504;48.810;9.172;2023-05-10T02:23:08;13.60;99.90
8939;DHT22;4504;48.810;9.172;2023-05-10T02:25:37;13.40;99.90
8939;DHT22;4504;48.810;9.172;2023-05-10T02:28:06;13.30;99.90
8939;DHT22;4504;48.810;9.172;2023-05-10T02:30:35;13.30;99.90
8939;DHT22;4504;48.810;9.172;2023-05-10T02:33:04;13.40;99.90
8939;DHT22;4504;48.810;9.172;2023-05-10T02:35:32;13.50;99.90
8939;DHT22;4504;48.810;9.172;2023-05-10T02:38:03;13.40;99.90
8939;DHT22;4504;48.810;9.172;2023-05-10T02:40:32;13.40;99.90
8939;DHT22;4504;48.810;9.172;2023-05-10T02:43:01;13.50;99.90
8939;DHT22;4504;48.810;9.172;2023-05-10T02:45:31;13.40;99.90
8939;DHT22;4504;48.810;9.172;2023-05-10T02:47:59;13.50;99.90
8939;DHT22;4504;48.810;9.172;2023-05-10T02:50:28;13.40;99.90
8939;DHT22;4504;48.810;9.172;2023-05-10T02:53:02;13.50;99.90
8939;DHT22;4504;48.810;9.172;2023-05-10T02:55:35;13.50;99.90
8939;DHT22;4504;48.810;9.172;2023-05-10T02:58:03;13.50;99.90
8939;DHT22;4504;48.810;9.172;2023-05-10T03:00:31;13.50;99.90
8939;DHT22;4504;48.810;9.172;2023-05-10T03:02:58;13.50;99.90
8939;DHT22;4504;48.810;9.172;2023-05-10T03:05:27;13.50;99.90
8939;DHT22;4504;48.810;9.172;2023-05-10T03:07:55;13.50;99.90
8939;DHT22;4504;48.810;9.172;2023-05-10T03:10:26;13.50;99.90
8939;DHT22;4504;48.810;9.172;2023-05-10T03:13:05;13.40;99.90
8939;DHT22;4504;48.810;9.172;2023-05-10T03:15:43;13.40;99.90
8939;DHT22;4504;48.810;9.172;2023-05-10T03:18:16;13.30;99.90
8939;DHT22;4504;48.810;9.172;2023-05-10T03:20:47;13.30;99.90
8939;DHT22;4504;48.810;9.172;2023-05-10T03:23:21;13.30;99.90
8939;DHT22;4504;48.810;9.172;2023-05-10T03:25:52;13.30;99.90
8939;DHT22;4504;48.810;9.172;2023-05-10T03:28:20;13.20;99.90
8939;DHT22;4504;48.810;9.172;2023-05-10T03:30:47;13.10;99.90
8939;DHT22;4504;48.810;9.172;2023-05-10T03:33:15;13.10;99.90
8939;DHT22;4504;48.810;9.172;2023-05-10T03:35:45;13.10;99.90
8939;DHT22;4504;48.810;9.172;2023-05-10T03:38:13;13.10;99.90
8939;DHT22;4504;48.810;9.172;2023-05-10T03:40:40;13.10;99.90
8939;DHT22;4504;48.810;9.172;2023-05-10T03:43:09;13.20;99.90
8939;DHT22;4504;48.810;9.172;2023-05-10T03:45:36;13.20;99.90
8939;DHT22;4504;48.810;9.172;2023-05-10T03:48:03;13.20;99.90
8939;DHT22;4504;48.810;9.172;2023-05-10T03:50:30;13.10;99.90
8939;DHT22;4504;48.810;9.172;2023-05-10T03:52:57;13.20;99.90
8939;DHT22;4504;48.810;9.172;2023-05-10T03:55:24;13.30;99.90
8939;DHT22;4504;48.810;9.172;2023-05-10T03:57:51;13.30;99.90
8939;DHT22;4504;48.810;9.172;2023-05-10T04:00:22;13.30;99.90
8939;DHT22;4504;48.810;9.172;2023-05-10T04:02:53;13.20;99.90
8939;DHT22;4504;48.810;9.172;2023-05-10T04:05:20;13.20;99.90
8939;DHT22;4504;48.810;9.172;2023-05-10T04:07:46;13.30;99.90
8939;DHT22;4504;48.810;9.172;2023-05-10T04:10:15;13.30;99.90
8939;DHT22;4504;48.810;9.172;2023-05-10T04:12:43;13.30;99.90
8939;DHT22;4504;48.810;9.172;2023-05-10T04:15:10;13.30;99.90
8939;DHT22;4504;48.810;9.172;2023-05-10T04:17:38;13.50;99.90
8939;DHT22;4504;48.810;9.172;2023-05-10T04:20:06;13.40;99.90
8939;DHT22;4504;48.810;9.172;2023-05-10T04:22:34;13.40;99.90
8939;DHT22;4504;48.810;9.172;2023-05-10T04:25:00;13.40;99.90
8939;DHT22;4504;48.810;9.172;2023-05-10T04:27:27;13.40;99.90
8939;DHT22;4504;48.810;9.172;2023-05-10T04:29:54;13.40;99.90
8939;DHT22;4504;48.810;9.172;2023-05-10T04:32:21;13.40;99.90
8939;DHT22;4504;48.810;9.172;2023-05-10T04:34:50;13.50;99.90
8939;DHT22;4504;48.810;9.172;2023-05-10T04:37:17;13.50;99.90
8939;DHT22;4504;48.810;9.172;2023-05-10T04:39:44;13.30;99.90
8939;DHT22;4504;48.810;9.172;2023-05-10T04:42:11;13.20;99.90
8939;DHT22;4504;48.810;9.172;2023-05-10T04:44:40;13.20;99.90
8939;DHT22;4504;48.810;9.172;2023-05-10T04:47:07;13.20;99.90
8939;DHT22;4504;48.810;9.172;2023-05-10T04:49:34;13.30;99.90
8939;DHT22;4504;48.810;9.172;2023-05-10T04:52:02;13.30;99.90
8939;DHT22;4504;48.810;9.172;2023-05-10T04:54:29;13.40;99.90
8939;DHT22;4504;48.810;9.172;2023-05-10T04:56:56;13.40;99.90
8939;DHT22;4504;48.810;9.172;2023-05-10T04:59:23;13.60;99.90
8939;DHT22;4504;48.810;9.172;2023-05-10T05:01:50;13.70;99.90
8939;DHT22;4504;48.810;9.172;2023-05-10T05:04:17;13.70;99.90
8939;DHT22;4504;48.810;9.172;2023-05-10T05:06:44;13.60;99.90
8939;DHT22;4504;48.810;9.172;2023-05-10T05:09:12;13.70;99.90
8939;DHT22;4504;48.810;9.172;2023-05-10T05:11:39;13.70;99.90
8939;DHT22;4504;48.810;9.172;2023-05-10T05:14:06;13.50;99.90
8939;DHT22;4504;48.810;9.172;2023-05-10T05:16:33;13.50;99.90
8939;DHT22;4504;48.810;9.172;2023-05-10T05:19:00;13.60;99.90
8939;DHT22;4504;48.810;9.172;2023-05-10T05:21:27;13.70;99.90
8939;DHT22;4504;48.810;9.172;2023-05-10T05:23:54;13.80;99.90
8939;DHT22;4504;48.810;9.172;2023-05-10T05:26:23;13.80;99.90
8939;DHT22;4504;48.810;9.172;2023-05-10T05:28:50;13.80;99.90
8939;DHT22;4504;48.810;9.172;2023-05-10T05:31:19;13.90;99.90
8939;DHT22;4504;48.810;9.172;2023-05-10T05:33:46;13.90;99.90
8939;DHT22;4504;48.810;9.172;2023-05-10T05:36:13;13.80;99.90
8939;DHT22;4504;48.810;9.172;2023-05-10T05:38:40;13.90;99.90
8939;DHT22;4504;48.810;9.172;2023-05-10T05:41:08;13.80;99.90
8939;DHT22;4504;48.810;9.172;2023-05-10T05:43:36;13.70;99.90
8939;DHT22;4504;48.810;9.172;2023-05-10T05:46:03;13.70;99.90
8939;DHT22;4504;48.810;9.172;2023-05-10T05:48:31;13.70;99.90
8939;DHT22;4504;48.810;9.172;2023-05-10T05:50:58;13.60;99.90
8939;DHT22;4504;48.810;9.172;2023-05-10T05:53:25;13.60;99.90
8939;DHT22;4504;48.810;9.172;2023-05-10T05:55:52;13.70;99.90
8939;DHT22;4504;48.810;9.172;2023-05-10T05:58:19;13.80;99.90
8939;DHT22;4504;48.810;9.172;2023-05-10T06:00:48;13.90;99.90
8939;DHT22;4504;48.810;9.172;2023-05-10T06:03:15;14.00;99.90
8939;DHT22;4504;48.810;9.172;2023-05-10T06:05:42;14.00;99.90
8939;DHT22;4504;48.810;9.172;2023-05-10T06:08:09;13.90;99.90
8939;DHT22;4504;48.810;9.172;2023-05-10T06:10:36;14.00;99.90
8939;DHT22;4504;48.810;9.172;2023-05-10T06:13:03;14.10;99.90
8939;DHT22;4504;48.810;9.172;2023-05-10T06:15:30;14.10;99.90
8939;DHT22;4504;48.810;9.172;2023-05-10T06:17:59;13.90;99.90
8939;DHT22;4504;48.810;9.172;2023-05-10T06:20:26;14.00;99.90
8939;DHT22;4504;48.810;9.172;2023-05-10T06:22:53;14.00;99.90
8939;DHT22;4504;48.810;9.172;2023-05-10T06:25:20;14.00;99.90
8939;DHT22;4504;48.810;9.172;2023-05-10T06:27:47;14.00;99.90
8939;DHT22;4504;48.810;9.172;2023-05-10T06:30:14;14.10;99.90
8939;DHT22;4504;48.810;9.172;2023-05-10T06:32:41;14.10;99.90
8939;DHT22;4504;48.810;9.172;2023-05-10T06:35:11;14.20;99.90
8939;DHT22;4504;48.810;9.172;2023-05-10T06:37:37;14.10;99.90
8939;DHT22;4504;48.810;9.172;2023-05-10T06:40:06;14.10;99.90
8939;DHT22;4504;48.810;9.172;2023-05-10T06:42:34;14.20;99.90
8939;DHT22;4504;48.810;9.172;2023-05-10T06:45:03;14.30;99.90
8939;DHT22;4504;48.810;9.172;2023-05-10T06:47:31;14.40;99.90
8939;DHT22;4504;48.810;9.172;2023-05-10T06:49:58;14.50;99.90
8939;DHT22;4504;48.810;9.172;2023-05-10T06:52:26;14.50;99.90
8939;DHT22;4504;48.810;9.172;2023-05-10T06:54:54;14.60;99.90
8939;DHT22;4504;48.810;9.172;2023-05-10T06:57:20;14.50;99.90
8939;DHT22;4504;48.810;9.172;2023-05-10T06:59:47;14.50;99.90
8939;DHT22;4504;48.810;9.172;2023-05-10T07:02:14;14.50;99.90
8939;DHT22;4504;48.810;9.172;2023-05-10T07:04:42;14.40;99.90
8939;DHT22;4504;48.810;9.172;2023-05-10T07:07:09;14.40;99.90
8939;DHT22;4504;48.810;9.172;2023-05-10T07:09:37;14.40;99.90
8939;DHT22;4504;48.810;9.172;2023-05-10T07:12:04;14.50;99.90
8939;DHT22;4504;48.810;9.172;2023-05-10T07:14:31;14.50;99.90
8939;DHT22;4504;48.810;9.172;2023-05-10T07:16:58;14.50;99.90
8939;DHT22;4504;48.810;9.172;2023-05-10T07:19:25;14.30;99.90
8939;DHT22;4504;48.810;9.172;2023-05-10T07:21:52;14.30;99.90
8939;DHT22;4504;48.810;9.172;2023-05-10T07:24:19;14.40;99.90
8939;DHT22;4504;48.810;9.172;2023-05-10T07:26:47;14.40;99.90
8939;DHT22;4504;48.810;9.172;2023-05-10T07:29:14;14.40;99.90
8939;DHT22;4504;48.810;9.172;2023-05-10T07:31:41;14.30;99.90
8939;DHT22;4504;48.810;9.172;2023-05-10T07:34:08;14.50;99.90
8939;DHT22;4504;48.810;9.172;2023-05-10T07:36:35;14.70;99.90
8939;DHT22;4504;48.810;9.172;2023-05-10T07:39:02;14.80;99.90
8939;DHT22;4504;48.810;9.172;2023-05-10T07:41:29;14.70;99.90
8939;DHT22;4504;48.810;9.172;2023-05-10T07:43:58;14.70;99.90
8939;DHT22;4504;48.810;9.172;2023-05-10T07:46:25;14.70;99.90
8939;DHT22;4504;48.810;9.172;2023-05-10T07:48:52;14.60;99.90
8939;DHT22;4504;48.810;9.172;2023-05-10T07:51:19;14.80;99.90
8939;DHT22;4504;48.810;9.172;2023-05-10T07:53:45;15.00;99.90
8939;DHT22;4504;48.810;9.172;2023-05-10T07:56:23;15.00;99.90
8939;DHT22;4504;48.810;9.172;2023-05-10T07:58:53;15.10;99.90
8939;DHT22;4504;48.810;9.172;2023-05-10T08:01:22;15.00;99.90
8939;DHT22;4504;48.810;9.172;2023-05-10T08:03:50;15.10;99.90
8939;DHT22;4504;48.810;9.172;2023-05-10T08:06:19;15.20;99.90
8939;DHT22;4504;48.810;9.172;2023-05-10T08:08:46;15.20;99.90
8939;DHT22;4504;48.810;9.172;2023-05-10T08:11:16;15.30;99.90
8939;DHT22;4504;48.810;9.172;2023-05-10T08:13:43;15.30;99.90
8939;DHT22;4504;48.810;9.172;2023-05-10T08:16:10;15.30;99.90
8939;DHT22;4504;48.810;9.172;2023-05-10T08:18:39;15.10;99.90
8939;DHT22;4504;48.810;9.172;2023-05-10T08:21:06;15.10;99.90
8939;DHT22;4504;48.810;9.172;2023-05-10T08:23:33;15.10;99.90
8939;DHT22;4504;48.810;9.172;2023-05-10T08:26:00;15.00;99.90
8939;DHT22;4504;48.810;9.172;2023-05-10T08:28:27;14.80;99.90
8939;DHT22;4504;48.810;9.172;2023-05-10T08:30:55;14.80;99.90
8939;DHT22;4504;48.810;9.172;2023-05-10T08:33:22;14.80;99.90
8939;DHT22;4504;48.810;9.172;2023-05-10T08:35:50;14.80;99.90
8939;DHT22;4504;48.810;9.172;2023-05-10T08:38:18;15.10;99.90
8939;DHT22;4504;48.810;9.172;2023-05-10T08:40:45;15.10;99.90
8939;DHT22;4504;48.810;9.172;2023-05-10T08:43:13;15.10;99.90
8939;DHT22;4504;48.810;9.172;2023-05-10T08:45:42;15.00;99.90
8939;DHT22;4504;48.810;9.172;2023-05-10T08:48:11;15.00;99.90
8939;DHT22;4504;48.810;9.172;2023-05-10T08:50:39;15.00;99.90
8939;DHT22;4504;48.810;9.172;2023-05-10T08:53:10;15.10;99.90
8939;DHT22;4504;48.810;9.172;2023-05-10T08:55:38;15.20;99.90
8939;DHT22;4504;48.810;9.172;2023-05-10T08:58:05;15.20;99.90
8939;DHT22;4504;48.810;9.172;2023-05-10T09:00:33;15.10;99.90
8939;DHT22;4504;48.810;9.172;2023-05-10T09:03:02;15.20;99.90
8939;DHT22;4504;48.810;9.172;2023-05-10T09:05:29;15.20;99.90
8939;DHT22;4504;48.810;9.172;2023-05-10T09:07:56;15.30;99.90
8939;DHT22;4504;48.810;9.172;2023-05-10T09:10:25;15.40;99.90
8939;DHT22;4504;48.810;9.172;2023-05-10T09:12:53;15.60;99.90
8939;DHT22;4504;48.810;9.172;2023-05-10T09:15:22;15.70;99.90
8939;DHT22;4504;48.810;9.172;2023-05-10T09:17:49;15.80;99.90
8939;DHT22;4504;48.810;9.172;2023-05-10T09:20:16;15.70;99.90
8939;DHT22;4504;48.810;9.172;2023-05-10T09:22:44;15.80;99.90
8939;DHT22;4504;48.810;9.172;2023-05-10T09:25:12;15.80;99.90
8939;DHT22;4504;48.810;9.172;2023-05-10T09:27:44;15.90;99.90
8939;DHT22;4504;48.810;9.172;2023-05-10T09:30:15;15.90;99.90
8939;DHT22;4504;48.810;9.172;2023-05-10T09:32:44;16.00;99.90
8939;DHT22;4504;48.810;9.172;2023-05-10T09:35:12;16.00;99.90
8939;DHT22;4504;48.810;9.172;2023-05-10T09:37:40;15.70;99.90
8939;DHT22;4504;48.810;9.172;2023-05-10T09:40:11;15.50;99.90
8939;DHT22;4504;48.810;9.172;2023-05-10T09:42:38;15.40;99.90
8939;DHT22;4504;48.810;9.172;2023-05-10T09:45:08;15.60;99.90
8939;DHT22;4504;48.810;9.172;2023-05-10T09:47:35;15.80;99.90
8939;DHT22;4504;48.810;9.172;2023-05-10T09:50:03;16.10;99.90
8939;DHT22;4504;48.810;9.172;2023-05-10T09:52:46;16.20;99.90
8939;DHT22;4504;48.810;9.172;2023-05-10T09:55:14;16.20;99.90
8939;DHT22;4504;48.810;9.172;2023-05-10T09:57:41;16.40;99.90
8939;DHT22;4504;48.810;9.172;2023-05-10T10:00:10;16.20;99.90
8939;DHT22;4504;48.810;9.172;2023-05-10T10:02:45;16.10;99.90
8939;DHT22;4504;48.810;9.172;2023-05-10T10:05:13;16.00;99.90
8939;DHT22;4504;48.810;9.172;2023-05-10T10:07:40;16.10;99.90
8939;DHT22;4504;48.810;9.172;2023-05-10T10:10:08;16.10;99.90
8939;DHT22;4504;48.810;9.172;2023-05-10T10:12:38;16.10;99.90
8939;DHT22;4504;48.810;9.172;2023-05-10T10:15:07;16.10;99.90
8939;DHT22;4504;48.810;9.172;2023-05-10T10:17:37;16.10;99.90
8939;DHT22;4504;48.810;9.172;2023-05-10T10:20:06;15.90;99.90
8939;DHT22;4504;48.810;9.172;2023-05-10T10:22:33;16.00;99.90
8939;DHT22;4504;48.810;9.172;2023-05-10T10:25:00;16.00;99.90
8939;DHT22;4504;48.810;9.172;2023-05-10T10:27:35;16.20;99.90
8939;DHT22;4504;48.810;9.172;2023-05-10T10:30:11;16.20;99.90
8939;DHT22;4504;48.810;9.172;2023-05-10T10:33:01;16.30;99.90
8939;DHT22;4504;48.810;9.172;2023-05-10T10:35:34;16.50;99.90
8939;DHT22;4504;48.810;9.172;2023-05-10T10:38:01;16.70;99.90
8939;DHT22;4504;48.810;9.172;2023-05-10T10:40:29;17.00;99.90
8939;DHT22;4504;48.810;9.172;2023-05-10T10:42:57;16.70;99.90
8939;DHT22;4504;48.810;9.172;2023-05-10T10:45:25;16.60;99.90
8939;DHT22;4504;48.810;9.172;2023-05-10T10:48:21;16.70;99.90
8939;DHT22;4504;48.810;9.172;2023-05-10T10:50:56;16.50;99.90
8939;DHT22;4504;48.810;9.172;2023-05-10T10:53:26;16.50;99.90
8939;DHT22;4504;48.810;9.172;2023-05-10T10:56:04;16.70;99.90
8939;DHT22;4504;48.810;9.172;2023-05-10T10:58:32;16.50;99.90
8939;DHT22;4504;48.810;9.172;2023-05-10T11:01:10;16.30;99.90
8939;DHT22;4504;48.810;9.172;2023-05-10T11:03:39;16.40;99.90
8939;DHT22;4504;48.810;9.172;2023-05-10T11:06:06;16.30;99.90
8939;DHT22;4504;48.810;9.172;2023-05-10T11:08:41;16.30;99.90
8939;DHT22;4504;48.810;9.172;2023-05-10T11:11:09;16.20;99.90
8939;DHT22;4504;48.810;9.172;2023-05-10T11:13:42;15.90;99.90
8939;DHT22;4504;48.810;9.172;2023-05-10T11:16:15;15.70;99.90
8939;DHT22;4504;48.810;9.172;2023-05-10T11:18:57;15.50;99.90
8939;DHT22;4504;48.810;9.172;2023-05-10T11:21:24;15.50;99.90
8939;DHT22;4504;48.810;9.172;2023-05-10T11:23:52;15.50;99.90
8939;DHT22;4504;48.810;9.172;2023-05-10T11:26:22;15.60;99.90
8939;DHT22;4504;48.810;9.172;2023-05-10T11:28:53;15.70;99.90
8939;DHT22;4504;48.810;9.172;2023-05-10T11:31:22;15.90;99.90
8939;DHT22;4504;48.810;9.172;2023-05-10T11:33:51;16.00;99.90
8939;DHT22;4504;48.810;9.172;2023-05-10T11:36:21;16.40;99.90
8939;DHT22;4504;48.810;9.172;2023-05-10T11:38:48;16.50;99.90
8939;DHT22;4504;48.810;9.172;2023-05-10T11:41:17;16.70;99.90
8939;DHT22;4504;48.810;9.172;2023-05-10T11:43:46;16.70;99.90
8939;DHT22;4504;48.810;9.172;2023-05-10T11:46:14;16.60;99.90
8939;DHT22;4504;48.810;9.172;2023-05-10T11:48:42;16.20;99.90
8939;DHT22;4504;48.810;9.172;2023-05-10T11:51:10;16.30;99.90
8939;DHT22;4504;48.810;9.172;2023-05-10T11:53:39;16.30;99.90
8939;DHT22;4504;48.810;9.172;2023-05-10T11:56:07;16.20;99.90
8939;DHT22;4504;48.810;9.172;2023-05-10T11:58:35;15.90;99.90
8939;DHT22;4504;48.810;9.172;2023-05-10T12:01:03;15.80;99.90
8939;DHT22;4504;48.810;9.172;2023-05-10T12:03:31;15.70;99.90
8939;DHT22;4504;48.810;9.172;2023-05-10T12:05:58;15.70;99.90
8939;DHT22;4504;48.810;9.172;2023-05-10T12:08:27;15.60;99.90
8939;DHT22;4504;48.810;9.172;2023-05-10T12:11:04;15.70;99.90
8939;DHT22;4504;48.810;9.172;2023-05-10T12:13:31;15.70;99.90
8939;DHT22;4504;48.810;9.172;2023-05-10T12:15:59;15.70;99.90
8939;DHT22;4504;48.810;9.172;2023-05-10T12:18:26;15.80;99.90
8939;DHT22;4504;48.810;9.172;2023-05-10T12:20:53;15.80;99.90
8939;DHT22;4504;48.810;9.172;2023-05-10T12:23:20;16.00;99.90
8939;DHT22;4504;48.810;9.172;2023-05-10T12:25:47;15.90;99.90
8939;DHT22;4504;48.810;9.172;2023-05-10T12:28:19;16.00;99.90
8939;DHT22;4504;48.810;9.172;2023-05-10T12:30:46;16.10;99.90
8939;DHT22;4504;48.810;9.172;2023-05-10T12:33:13;16.10;99.90
8939;DHT22;4504;48.810;9.172;2023-05-10T12:35:46;16.00;99.90
8939;DHT22;4504;48.810;9.172;2023-05-10T12:38:27;16.20;99.90
8939;DHT22;4504;48.810;9.172;2023-05-10T12:40:55;16.40;99.90
8939;DHT22;4504;48.810;9.172;2023-05-10T12:43:23;16.40;99.90
8939;DHT22;4504;48.810;9.172;2023-05-10T12:45:51;16.50;99.90
8939;DHT22;4504;48.810;9.172;2023-05-10T12:48:18;16.70;99.80
8939;DHT22;4504;48.810;9.172;2023-05-10T12:50:45;16.90;99.40
8939;DHT22;4504;48.810;9.172;2023-05-10T12:53:14;16.80;99.10
8939;DHT22;4504;48.810;9.172;2023-05-10T12:55:41;16.50;99.50
8939;DHT22;4504;48.810;9.172;2023-05-10T12:58:08;16.40;99.90
8939;DHT22;4504;48.810;9.172;2023-05-10T13:00:36;16.30;99.90
8939;DHT22;4504;48.810;9.172;2023-05-10T13:03:03;16.30;99.90
8939;DHT22;4504;48.810;9.172;2023-05-10T13:05:31;16.60;99.90
8939;DHT22;4504;48.810;9.172;2023-05-10T13:07:58;16.60;99.90
8939;DHT22;4504;48.810;9.172;2023-05-10T13:10:25;16.30;99.90
8939;DHT22;4504;48.810;9.172;2023-05-10T13:12:52;15.90;99.90
8939;DHT22;4504;48.810;9.172;2023-05-10T13:15:19;15.90;99.90
8939;DHT22;4504;48.810;9.172;2023-05-10T13:17:47;16.00;99.90
8939;DHT22;4504;48.810;9.172;2023-05-10T13:20:14;15.90;99.90
8939;DHT22;4504;48.810;9.172;2023-05-10T13:22:42;15.90;99.90
8939;DHT22;4504;48.810;9.172;2023-05-10T13:25:09;16.00;99.90
8939;DHT22;4504;48.810;9.172;2023-05-10T13:27:36;16.00;99.90
8939;DHT22;4504;48.810;9.172;2023-05-10T13:30:04;16.20;99.90
8939;DHT22;4504;48.810;9.172;2023-05-10T13:32:31;16.40;99.90
8939;DHT22;4504;48.810;9.172;2023-05-10T13:35:00;16.50;99.90
8939;DHT22;4504;48.810;9.172;2023-05-10T13:37:28;16.30;99.40
8939;DHT22;4504;48.810;9.172;2023-05-10T13:39:56;15.80;99.90
8939;DHT22;4504;48.810;9.172;2023-05-10T13:42:23;15.80;99.90
8939;DHT22;4504;48.810;9.172;2023-05-10T13:44:50;15.90;99.90
8939;DHT22;4504;48.810;9.172;2023-05-10T13:47:17;16.20;99.90
8939;DHT22;4504;48.810;9.172;2023-05-10T13:49:44;16.40;99.90
8939;DHT22;4504;48.810;9.172;2023-05-10T13:52:12;16.50;99.90
8939;DHT22;4504;48.810;9.172;2023-05-10T13:54:39;16.60;99.90
8939;DHT22;4504;48.810;9.172;2023-05-10T13:57:07;16.80;99.90
8939;DHT22;4504;48.810;9.172;2023-05-10T14:00:44;16.70;99.20
8939;DHT22;4504;48.810;9.172;2023-05-10T14:03:11;16.60;99.90
8939;DHT22;4504;48.810;9.172;2023-05-10T14:05:38;16.70;99.90
8939;DHT22;4504;48.810;9.172;2023-05-10T14:08:05;17.00;99.90
8939;DHT22;4504;48.810;9.172;2023-05-10T14:10:33;17.00;98.40
8939;DHT22;4504;48.810;9.172;2023-05-10T14:13:00;17.00;97.20
8939;DHT22;4504;48.810;9.172;2023-05-10T14:15:26;17.20;97.90
8939;DHT22;4504;48.810;9.172;2023-05-10T14:17:55;17.20;97.50
8939;DHT22;4504;48.810;9.172;2023-05-10T14:20:22;17.10;98.00
8939;DHT22;4504;48.810;9.172;2023-05-10T14:22:49;17.20;97.50
8939;DHT22;4504;48.810;9.172;2023-05-10T14:25:16;17.30;97.20
8939;DHT22;4504;48.810;9.172;2023-05-10T14:27:43;17.30;95.90
8939;DHT22;4504;48.810;9.172;2023-05-10T14:30:10;16.90;94.90
8939;DHT22;4504;48.810;9.172;2023-05-10T14:32:38;16.70;95.40
8939;DHT22;4504;48.810;9.172;2023-05-10T14:35:07;16.70;95.90
8939;DHT22;4504;48.810;9.172;2023-05-10T14:37:34;16.50;96.20
8939;DHT22;4504;48.810;9.172;2023-05-10T14:40:02;16.30;96.20
8939;DHT22;4504;48.810;9.172;2023-05-10T14:42:30;16.30;97.30
8939;DHT22;4504;48.810;9.172;2023-05-10T14:44:57;16.50;97.80
8939;DHT22;4504;48.810;9.172;2023-05-10T14:47:23;16.60;97.40
8939;DHT22;4504;48.810;9.172;2023-05-10T14:49:51;16.60;97.00
8939;DHT22;4504;48.810;9.172;2023-05-10T14:52:19;16.90;97.50
8939;DHT22;4504;48.810;9.172;2023-05-10T14:54:46;17.00;97.10
8939;DHT22;4504;48.810;9.172;2023-05-10T14:57:13;17.10;96.40
8939;DHT22;4504;48.810;9.172;2023-05-10T14:59:40;16.80;96.00
8939;DHT22;4504;48.810;9.172;2023-05-10T15:02:07;16.70;96.70
8939;DHT22;4504;48.810;9.172;2023-05-10T15:04:35;16.90;97.30
8939;DHT22;4504;48.810;9.172;2023-05-10T15:07:03;16.90;96.90
8939;DHT22;4504;48.810;9.172;2023-05-10T15:09:31;17.00;96.90
8939;DHT22;4504;48.810;9.172;2023-05-10T15:11:58;17.20;97.50
8939;DHT22;4504;48.810;9.172;2023-05-10T15:14:25;17.20;96.80
8939;DHT22;4504;48.810;9.172;2023-05-10T15:16:52;17.30;97.50
8939;DHT22;4504;48.810;9.172;2023-05-10T15:19:19;17.30;97.10
8939;DHT22;4504;48.810;9.172;2023-05-10T15:21:46;17.10;97.30
8939;DHT22;4504;48.810;9.172;2023-05-10T15:24:13;17.10;98.20
8939;DHT22;4504;48.810;9.172;2023-05-10T15:26:42;17.10;97.10
8939;DHT22;4504;48.810;9.172;2023-05-10T15:29:09;17.10;96.70
8939;DHT22;4504;48.810;9.172;2023-05-10T15:31:36;17.20;96.50
8939;DHT22;4504;48.810;9.172;2023-05-10T15:34:03;17.20;97.50
8939;DHT22;4504;48.810;9.172;2023-05-10T15:36:31;17.30;98.10
8939;DHT22;4504;48.810;9.172;2023-05-10T15:38:58;17.40;97.30
8939;DHT22;4504;48.810;9.172;2023-05-10T15:41:25;17.40;96.70
8939;DHT22;4504;48.810;9.172;2023-05-10T15:43:54;17.30;97.60
8939;DHT22;4504;48.810;9.172;2023-05-10T15:46:21;17.40;98.30
8939;DHT22;4504;48.810;9.172;2023-05-10T15:48:48;17.60;97.60
8939;DHT22;4504;48.810;9.172;2023-05-10T15:51:15;17.60;96.40
8939;DHT22;4504;48.810;9.172;2023-05-10T15:53:42;17.70;96.50
8939;DHT22;4504;48.810;9.172;2023-05-10T15:56:09;17.60;96.90
8939;DHT22;4504;48.810;9.172;2023-05-10T15:58:36;17.50;97.40
8939;DHT22;4504;48.810;9.172;2023-05-10T16:01:05;17.40;97.30
8939;DHT22;4504;48.810;9.172;2023-05-10T16:03:32;17.50;98.40
8939;DHT22;4504;48.810;9.172;2023-05-10T16:05:59;17.50;97.10
8939;DHT22;4504;48.810;9.172;2023-05-10T16:08:27;17.50;97.60
8939;DHT22;4504;48.810;9.172;2023-05-10T16:10:55;17.40;97.30